Time;durP1;ratioP1;P1;durP2;ratioP2;P2;SDS_P1;SDS_P2;PMS_P1;PMS_P2;Temp;Humidity;BMP_temperature;BMP_pressure;BME280_temperature;BME280_humidity;BME280_pressure;Samples;Min_cycle;Max_cycle;Signal;HPM_P1;HPM_P2
2022/06/12 00:01:32;;;;;;;19.20;4.87;;;21.20;99.90;;;;;;5017663;28;20295;-78
2022/06/12 00:03:58;;;;;;;20.23;5.40;;;21.20;99.90;;;;;;5028419;28;20203;-78
2022/06/12 00:06:26;;;;;;;17.73;4.83;;;21.10;99.90;;;;;;5027790;28;20284;-78
2022/06/12 00:08:54;;;;;;;14.73;5.33;;;21.00;99.90;;;;;;5045039;28;20659;-78
2022/06/12 00:11:25;;;;;;;12.37;4.90;;;21.00;99.90;;;;;;5050397;28;20199;-79
2022/06/12 00:13:57;;;;;;;16.93;5.07;;;20.90;99.90;;;;;;5034661;28;20192;-78
2022/06/12 00:16:24;;;;;;;17.07;4.83;;;20.90;99.90;;;;;;5025794;28;20195;-78
2022/06/12 00:18:54;;;;;;;18.47;5.00;;;20.90;99.90;;;;;;5032266;28;20295;-78
2022/06/12 00:21:21;;;;;;;13.97;4.40;;;20.80;99.90;;;;;;5031231;28;21097;-79
2022/06/12 00:23:55;;;;;;;13.40;4.20;;;20.80;99.90;;;;;;5033952;28;20274;-79
2022/06/12 00:26:32;;;;;;;17.43;4.13;;;20.80;99.90;;;;;;5032791;28;20184;-78
2022/06/12 00:29:24;;;;;;;11.60;4.40;;;20.70;99.90;;;;;;5043976;28;20259;-78
2022/06/12 00:32:08;;;;;;;12.07;3.87;;;20.70;99.90;;;;;;5013124;28;20276;-78
2022/06/12 00:34:53;;;;;;;15.63;4.07;;;20.60;99.90;;;;;;5031879;28;20215;-78
2022/06/12 00:37:23;;;;;;;17.67;4.27;;;20.60;99.90;;;;;;5025595;28;20192;-78
2022/06/12 00:39:53;;;;;;;12.97;4.03;;;20.60;99.90;;;;;;5015883;28;20203;-78
2022/06/12 00:42:35;;;;;;;15.17;4.10;;;20.50;99.90;;;;;;5028241;28;20199;-78
2022/06/12 00:45:32;;;;;;;13.80;3.90;;;20.50;99.90;;;;;;5022971;28;20230;-78
2022/06/12 00:48:09;;;;;;;8.97;3.40;;;20.50;99.90;;;;;;5029906;28;20316;-78
2022/06/12 00:50:40;;;;;;;12.83;3.87;;;20.40;99.90;;;;;;5035325;28;20311;-78
2022/06/12 00:53:16;;;;;;;16.17;4.33;;;20.30;99.90;;;;;;5027147;28;21549;-78
2022/06/12 00:55:55;;;;;;;14.97;3.80;;;20.30;99.90;;;;;;5018085;28;20220;-78
2022/06/12 00:58:31;;;;;;;15.67;4.17;;;20.30;99.90;;;;;;5017981;28;20191;-78
2022/06/12 01:00:57;;;;;;;10.67;3.40;;;20.30;99.90;;;;;;5041682;28;20203;-78
2022/06/12 01:03:25;;;;;;;17.27;4.03;;;20.40;99.90;;;;;;5034273;28;20234;-78
2022/06/12 01:08:40;;;;;;;11.50;3.80;;;20.30;99.90;;;;;;5031908;28;20222;-78
2022/06/12 01:11:12;;;;;;;13.73;4.03;;;20.30;99.90;;;;;;5012356;28;20184;-78
2022/06/12 01:13:45;;;;;;;15.13;3.90;;;20.30;99.90;;;;;;5027041;28;20230;-78
2022/06/12 01:16:18;;;;;;;10.87;3.67;;;20.30;99.90;;;;;;5027080;28;20190;-78
2022/06/12 01:18:53;;;;;;;12.50;4.07;;;20.30;99.90;;;;;;5039024;28;21058;-79
2022/06/12 01:21:33;;;;;;;13.73;4.33;;;20.30;99.90;;;;;;5019479;28;20212;-78
2022/06/12 01:25:04;;;;;;;13.20;3.90;;;20.30;99.90;;;;;;5031726;28;21143;-78
2022/06/12 01:27:48;;;;;;;17.43;4.00;;;20.30;99.90;;;;;;5006549;28;20196;-79
2022/06/12 01:30:33;;;;;;;13.73;4.30;;;20.40;99.90;;;;;;5026560;28;20215;-78
2022/06/12 01:33:24;;;;;;;17.83;4.40;;;20.40;99.90;;;;;;5025050;28;20204;-78
2022/06/12 01:36:03;;;;;;;15.30;4.07;;;20.30;99.90;;;;;;5031450;28;20292;-78
2022/06/12 01:38:40;;;;;;;23.00;4.37;;;20.30;99.90;;;;;;5044170;28;20195;-78
2022/06/12 01:41:32;;;;;;;15.90;3.93;;;20.30;99.90;;;;;;5024930;28;20199;-78
2022/06/12 01:44:34;;;;;;;15.53;3.57;;;20.30;99.90;;;;;;5014733;28;20282;-78
2022/06/12 01:47:37;;;;;;;20.83;5.00;;;20.30;99.90;;;;;;5007786;28;20237;-78
2022/06/12 01:50:07;;;;;;;15.03;4.27;;;20.20;99.90;;;;;;5033325;28;20678;-78
2022/06/12 01:53:08;;;;;;;13.70;4.00;;;20.30;99.90;;;;;;5036484;28;20183;-79
2022/06/12 01:55:57;;;;;;;15.83;4.30;;;20.20;99.90;;;;;;5027440;28;20279;-78
2022/06/12 01:58:36;;;;;;;12.60;3.67;;;20.30;99.90;;;;;;5026445;28;20196;-79
2022/06/12 02:01:43;;;;;;;9.77;4.00;;;20.30;99.90;;;;;;5027798;28;20220;-78
2022/06/12 02:04:31;;;;;;;17.20;3.93;;;20.30;99.90;;;;;;5011086;28;22230;-79
2022/06/12 02:07:12;;;;;;;18.80;4.57;;;20.30;99.90;;;;;;5029926;28;20187;-79
2022/06/12 02:09:49;;;;;;;18.23;4.20;;;20.30;99.90;;;;;;5032472;28;20199;-78
2022/06/12 02:15:25;;;;;;;15.97;3.80;;;20.30;99.90;;;;;;5026408;28;20257;-79
2022/06/12 02:18:23;;;;;;;13.07;3.60;;;20.20;99.90;;;;;;5027138;28;21519;-78
2022/06/12 02:21:10;;;;;;;14.37;3.83;;;20.20;99.90;;;;;;5038327;28;20206;-79
2022/06/12 02:23:50;;;;;;;18.27;4.17;;;20.20;99.90;;;;;;5014773;28;20206;-78
2022/06/12 02:26:26;;;;;;;18.23;4.47;;;20.20;99.90;;;;;;5027112;28;20191;-78
2022/06/12 02:29:03;;;;;;;15.53;4.63;;;20.20;99.90;;;;;;5024908;28;20216;-78
2022/06/12 02:31:41;;;;;;;18.47;4.63;;;20.10;99.90;;;;;;5038415;28;20302;-78
2022/06/12 02:34:25;;;;;;;15.20;4.20;;;20.10;99.90;;;;;;5026493;28;20342;-78
2022/06/12 02:37:01;;;;;;;12.27;3.93;;;20.10;99.90;;;;;;5014223;28;20246;-77
2022/06/12 02:39:37;;;;;;;15.23;4.70;;;20.10;99.90;;;;;;5030693;28;20191;-78
2022/06/12 02:42:23;;;;;;;14.80;4.27;;;20.10;99.90;;;;;;5024898;28;20222;-79
2022/06/12 02:45:07;;;;;;;12.00;4.20;;;20.10;99.90;;;;;;5040561;28;20293;-78
2022/06/12 02:47:40;;;;;;;12.43;4.07;;;20.10;99.90;;;;;;5025834;28;20405;-78
2022/06/12 02:50:12;;;;;;;16.90;4.87;;;20.20;99.90;;;;;;5028080;28;20199;-78
2022/06/12 02:52:53;;;;;;;20.40;4.57;;;20.20;99.90;;;;;;5025632;28;20703;-78
2022/06/12 02:55:49;;;;;;;14.87;4.07;;;20.10;99.90;;;;;;5040019;28;20222;-78
2022/06/12 02:58:52;;;;;;;15.97;4.33;;;20.10;99.90;;;;;;5030752;28;20192;-78
2022/06/12 03:02:01;;;;;;;15.77;5.10;;;20.10;99.90;;;;;;5025980;28;20248;-78
2022/06/12 03:04:36;;;;;;;16.67;4.57;;;20.10;99.90;;;;;;5030306;28;20291;-78
2022/06/12 03:07:04;;;;;;;13.43;4.37;;;20.10;99.90;;;;;;5012334;28;20194;-78
2022/06/12 03:09:30;;;;;;;13.37;4.53;;;20.10;99.90;;;;;;5025780;28;20191;-78
2022/06/12 03:11:59;;;;;;;12.13;4.33;;;20.10;99.90;;;;;;5033421;28;20196;-78
2022/06/12 03:14:25;;;;;;;15.13;4.63;;;20.20;99.90;;;;;;5025289;28;20873;-78
2022/06/12 03:16:53;;;;;;;16.43;4.47;;;20.20;99.90;;;;;;5023784;28;20188;-78
2022/06/12 03:19:33;;;;;;;16.33;4.27;;;20.10;99.90;;;;;;5026320;28;20217;-79
2022/06/12 03:22:09;;;;;;;17.30;3.87;;;20.20;99.90;;;;;;5015466;28;20204;-78
2022/06/12 03:25:01;;;;;;;14.03;4.13;;;20.10;99.90;;;;;;5024665;28;20199;-78
2022/06/12 03:28:04;;;;;;;14.33;4.00;;;20.20;99.90;;;;;;5006713;28;20192;-78
2022/06/12 03:30:37;;;;;;;17.57;4.83;;;20.20;99.90;;;;;;5016154;28;20207;-79
2022/06/12 03:33:41;;;;;;;15.97;4.30;;;20.20;99.90;;;;;;5006904;28;20212;-78
2022/06/12 03:36:33;;;;;;;14.10;4.50;;;20.20;99.90;;;;;;5043460;28;20195;-78
2022/06/12 03:39:49;;;;;;;16.63;4.33;;;20.20;99.90;;;;;;5029370;28;20660;-78
2022/06/12 03:42:41;;;;;;;11.53;4.37;;;20.20;99.90;;;;;;5024388;28;20216;-79
2022/06/12 03:45:25;;;;;;;15.03;4.90;;;20.30;99.90;;;;;;5023830;28;20208;-78
2022/06/12 03:48:41;;;;;;;21.53;4.90;;;20.40;99.90;;;;;;5023471;28;20528;-78
2022/06/12 03:51:45;;;;;;;13.70;4.30;;;20.40;99.90;;;;;;5016367;28;20188;-78
2022/06/12 03:54:23;;;;;;;19.37;4.17;;;20.40;99.90;;;;;;5039306;28;20857;-78
2022/06/12 03:59:54;;;;;;;13.37;4.57;;;20.60;99.90;;;;;;5028396;28;20636;-78
2022/06/12 04:02:26;;;;;;;14.43;4.63;;;20.70;99.90;;;;;;5018992;28;20250;-79
2022/06/12 04:04:55;;;;;;;22.10;5.13;;;20.70;99.90;;;;;;5026436;28;20211;-79
2022/06/12 04:07:27;;;;;;;12.93;4.20;;;20.80;99.90;;;;;;5028396;28;20227;-79
2022/06/12 04:10:02;;;;;;;16.97;4.80;;;20.90;99.90;;;;;;5021059;28;20222;-78
2022/06/12 04:12:34;;;;;;;17.87;4.97;;;20.90;99.90;;;;;;5014718;28;20862;-78
2022/06/12 04:15:38;;;;;;;18.33;4.50;;;20.90;99.90;;;;;;5011218;28;20196;-78
2022/06/12 04:18:05;;;;;;;17.87;5.10;;;20.80;99.90;;;;;;5020796;28;20207;-79
2022/06/12 04:20:54;;;;;;;14.50;4.77;;;20.90;99.90;;;;;;5022871;28;20233;-79
2022/06/12 04:23:48;;;;;;;20.33;5.00;;;20.90;99.90;;;;;;5017851;28;20205;-79
2022/06/12 04:26:36;;;;;;;13.97;4.80;;;20.90;99.90;;;;;;5033003;28;20203;-79
2022/06/12 04:29:12;;;;;;;14.47;4.47;;;21.00;99.90;;;;;;5030922;28;20187;-78
2022/06/12 04:31:42;;;;;;;12.13;4.43;;;21.10;99.90;;;;;;5025141;28;20246;-79
2022/06/12 04:34:20;;;;;;;16.27;4.77;;;21.20;99.90;;;;;;5036060;28;20257;-79
2022/06/12 04:36:55;;;;;;;14.67;5.30;;;21.30;99.90;;;;;;5030546;28;20220;-79
2022/06/12 04:39:31;;;;;;;17.20;5.17;;;21.40;99.90;;;;;;5012887;28;21955;-79
2022/06/12 04:42:00;;;;;;;16.13;4.70;;;21.30;99.90;;;;;;5015104;28;20223;-78
2022/06/12 04:44:26;;;;;;;13.30;4.47;;;21.20;99.90;;;;;;5012162;28;20875;-79
2022/06/12 04:46:56;;;;;;;13.37;4.20;;;21.20;99.90;;;;;;5009643;28;20261;-79
2022/06/12 04:49:27;;;;;;;13.33;4.53;;;21.20;99.90;;;;;;5032212;28;20212;-78
2022/06/12 04:51:58;;;;;;;13.90;4.30;;;21.20;99.90;;;;;;5022145;28;20194;-78
2022/06/12 04:54:27;;;;;;;15.47;4.23;;;21.30;99.90;;;;;;5036435;28;20214;-77
2022/06/12 04:56:54;;;;;;;11.33;4.20;;;21.30;99.90;;;;;;5027477;28;20223;-78
2022/06/12 04:59:21;;;;;;;14.37;4.87;;;21.30;99.90;;;;;;5031405;28;20899;-79
2022/06/12 05:01:50;;;;;;;13.93;4.60;;;21.40;99.90;;;;;;5041696;28;20270;-79
2022/06/12 05:04:19;;;;;;;11.53;4.30;;;21.40;99.90;;;;;;5032365;28;20194;-79
2022/06/12 05:06:49;;;;;;;14.67;4.73;;;21.50;99.90;;;;;;5016173;28;20191;-79
2022/06/12 05:09:17;;;;;;;10.67;4.13;;;21.60;99.90;;;;;;5013791;28;20536;-79
2022/06/12 05:11:44;;;;;;;13.63;4.97;;;21.70;99.90;;;;;;5027759;28;20192;-78
2022/06/12 05:14:12;;;;;;;14.27;4.97;;;21.70;99.90;;;;;;5037993;28;22036;-78
2022/06/12 05:16:44;;;;;;;13.63;4.40;;;21.70;99.90;;;;;;5026096;28;20590;-78
2022/06/12 05:19:18;;;;;;;17.87;4.53;;;21.70;99.90;;;;;;5025693;28;20271;-79
2022/06/12 05:21:46;;;;;;;10.17;4.13;;;21.70;99.90;;;;;;5031466;28;20233;-79
2022/06/12 05:24:13;;;;;;;20.43;4.70;;;21.80;99.90;;;;;;5029474;28;20290;-78
2022/06/12 05:26:45;;;;;;;13.57;4.27;;;21.80;99.90;;;;;;5044986;28;20203;-79
2022/06/12 05:29:27;;;;;;;11.30;4.18;;;21.70;99.90;;;;;;5027121;28;20184;-79
2022/06/12 05:31:56;;;;;;;14.43;4.40;;;21.70;99.90;;;;;;5018065;28;20202;-78
2022/06/12 05:34:25;;;;;;;10.80;4.30;;;21.60;99.90;;;;;;5012870;28;20208;-79
2022/06/12 05:36:52;;;;;;;19.17;4.90;;;21.50;99.90;;;;;;5019378;28;20207;-78
2022/06/12 05:39:22;;;;;;;20.90;4.50;;;21.50;99.90;;;;;;5031157;28;20200;-78
2022/06/12 05:41:50;;;;;;;16.90;4.30;;;21.50;99.90;;;;;;5016202;28;20692;-79
2022/06/12 05:44:17;;;;;;;13.33;4.37;;;21.50;99.90;;;;;;5032798;28;20206;-77
2022/06/12 05:46:44;;;;;;;17.47;4.33;;;21.60;99.90;;;;;;5028062;28;21795;-79
2022/06/12 05:49:12;;;;;;;13.27;3.97;;;21.70;99.90;;;;;;5029727;28;20192;-79
2022/06/12 05:51:39;;;;;;;13.57;4.23;;;21.80;99.90;;;;;;5026744;28;20370;-79
2022/06/12 05:54:07;;;;;;;15.63;3.80;;;21.90;99.90;;;;;;5038689;28;20207;-78
2022/06/12 05:56:40;;;;;;;16.17;4.20;;;22.00;99.90;;;;;;5044831;28;20197;-78
2022/06/12 05:59:07;;;;;;;11.33;3.90;;;22.10;99.90;;;;;;5048221;28;20275;-82
2022/06/12 06:01:40;;;;;;;17.70;4.10;;;22.20;99.90;;;;;;5018094;28;20295;-78
2022/06/12 06:04:09;;;;;;;15.97;4.53;;;22.30;99.90;;;;;;5013678;28;20242;-80
2022/06/12 06:06:46;;;;;;;8.97;3.30;;;22.50;99.90;;;;;;5047132;28;20180;-79
2022/06/12 06:09:13;;;;;;;19.70;4.30;;;22.50;99.90;;;;;;5024943;28;22370;-80
2022/06/12 06:11:41;;;;;;;12.33;3.57;;;22.40;99.90;;;;;;5035955;28;20230;-81
2022/06/12 06:14:07;;;;;;;16.43;3.80;;;22.50;99.90;;;;;;5033806;28;20664;-80
2022/06/12 06:16:39;;;;;;;15.00;4.17;;;22.60;99.90;;;;;;5045081;28;20210;-81
2022/06/12 06:19:07;;;;;;;14.50;3.57;;;22.70;99.90;;;;;;5020386;28;20188;-80
2022/06/12 06:21:37;;;;;;;11.95;4.20;;;22.70;99.90;;;;;;5034253;28;20215;-79
2022/06/12 06:24:05;;;;;;;10.13;3.40;;;22.70;99.90;;;;;;5032815;28;20518;-79
2022/06/12 06:26:35;;;;;;;13.63;4.40;;;22.60;99.90;;;;;;5038371;28;20183;-80
2022/06/12 06:29:16;;;;;;;18.70;4.47;;;22.60;99.90;;;;;;5018709;28;20184;-80
2022/06/12 06:31:45;;;;;;;14.07;4.43;;;22.60;99.90;;;;;;5034214;28;20184;-79
2022/06/12 06:34:23;;;;;;;13.13;3.50;;;22.40;99.90;;;;;;5025081;28;20210;-80
2022/06/12 06:36:49;;;;;;;22.13;4.53;;;22.30;99.90;;;;;;5029700;28;20192;-79
2022/06/12 06:39:21;;;;;;;17.08;4.20;;;22.30;99.90;;;;;;5040237;28;20188;-81
2022/06/12 06:41:47;;;;;;;18.03;4.37;;;22.30;99.90;;;;;;5026523;28;20216;-82
2022/06/12 06:47:06;;;;;;;15.98;4.22;;;22.50;99.90;;;;;;5034686;28;20180;-80
2022/06/12 06:49:32;;;;;;;13.23;4.13;;;22.70;99.90;;;;;;5027134;28;20188;-81
2022/06/12 06:52:11;;;;;;;16.73;4.20;;;22.80;99.90;;;;;;5023565;28;20208;-81
2022/06/12 06:54:38;;;;;;;23.70;4.80;;;22.80;99.90;;;;;;5013731;28;20186;-83
2022/06/12 06:57:07;;;;;;;12.43;4.00;;;22.70;99.90;;;;;;5012008;28;21029;-79
2022/06/12 06:59:35;;;;;;;14.53;4.40;;;22.60;99.90;;;;;;5040717;28;20199;-80
2022/06/12 07:02:03;;;;;;;21.10;4.73;;;22.60;99.90;;;;;;5020892;28;20278;-80
2022/06/12 07:04:31;;;;;;;17.42;5.32;;;22.50;99.90;;;;;;5037783;28;20267;-78
2022/06/12 07:06:58;;;;;;;12.80;4.30;;;22.50;99.90;;;;;;5029777;28;20180;-79
2022/06/12 07:09:27;;;;;;;12.20;3.80;;;22.70;99.90;;;;;;5043419;28;20184;-80
2022/06/12 07:11:53;;;;;;;13.37;3.90;;;22.90;99.90;;;;;;5031885;28;20211;-80
2022/06/12 07:14:20;;;;;;;19.42;3.78;;;23.00;99.90;;;;;;5030885;28;20639;-81
2022/06/12 07:16:55;;;;;;;19.08;4.30;;;23.00;99.90;;;;;;5042828;28;20184;-79
2022/06/12 07:19:23;;;;;;;15.50;4.40;;;22.90;99.90;;;;;;5030519;28;20183;-82
2022/06/12 07:22:11;;;;;;;15.73;4.03;;;22.80;99.90;;;;;;5041502;28;20237;-79
2022/06/12 07:24:37;;;;;;;16.77;4.33;;;22.90;99.90;;;;;;5048001;28;20199;-82
2022/06/12 07:27:14;;;;;;;12.48;4.05;;;23.10;99.90;;;;;;5039885;28;20184;-80
2022/06/12 07:29:41;;;;;;;13.00;4.00;;;23.20;99.90;;;;;;5056857;28;20192;-80
2022/06/12 07:32:19;;;;;;;13.48;3.80;;;23.20;99.90;;;;;;5025557;28;20595;-79
2022/06/12 07:34:47;;;;;;;16.70;4.15;;;23.20;99.90;;;;;;5046716;28;20295;-79
2022/06/12 07:37:14;;;;;;;14.07;4.18;;;23.10;99.90;;;;;;5058118;28;20192;-80
2022/06/12 07:39:45;;;;;;;10.63;3.60;;;23.10;99.90;;;;;;5035296;28;20191;-79
2022/06/12 07:42:12;;;;;;;12.00;3.90;;;23.20;99.90;;;;;;5046778;28;20219;-82
2022/06/12 07:44:40;;;;;;;21.37;4.03;;;23.40;99.90;;;;;;5033163;28;20200;-79
2022/06/12 07:47:20;;;;;;;17.15;4.22;;;23.40;99.90;;;;;;5039229;28;20753;-80
2022/06/12 07:49:47;;;;;;;16.13;3.53;;;23.30;99.90;;;;;;5048169;28;20232;-80
2022/06/12 07:52:16;;;;;;;11.73;3.72;;;23.10;99.90;;;;;;5042383;28;20188;-80
2022/06/12 07:54:43;;;;;;;14.10;3.95;;;23.10;99.90;;;;;;5031097;28;20185;-79
2022/06/12 07:57:12;;;;;;;10.15;3.30;;;23.20;99.90;;;;;;5021505;28;20184;-80
2022/06/12 07:59:39;;;;;;;8.88;3.10;;;23.20;99.90;;;;;;5068754;28;20184;-80
2022/06/12 08:02:07;;;;;;;13.10;3.70;;;23.20;99.90;;;;;;5012712;28;20230;-79
2022/06/12 08:04:49;;;;;;;12.88;3.53;;;23.20;99.90;;;;;;5044745;28;20370;-80
2022/06/12 08:07:17;;;;;;;12.88;3.47;;;23.10;99.90;;;;;;5028883;28;20195;-79
2022/06/12 08:09:48;;;;;;;13.57;3.78;;;23.10;99.90;;;;;;5044136;28;20987;-80
2022/06/12 08:12:16;;;;;;;15.07;4.25;;;23.20;99.90;;;;;;5028929;28;20188;-81
2022/06/12 08:14:43;;;;;;;10.43;3.20;;;23.30;99.90;;;;;;5026731;28;20184;-81
2022/06/12 08:17:10;;;;;;;11.77;3.13;;;23.10;99.90;;;;;;5046922;28;20185;-79
2022/06/12 08:22:22;;;;;;;12.55;3.58;;;23.10;99.90;;;;;;5036930;28;20238;-79
2022/06/12 08:25:18;;;;;;;13.23;3.63;;;23.10;99.90;;;;;;5034156;28;20263;-79
2022/06/12 08:27:45;;;;;;;11.13;3.60;;;23.20;99.90;;;;;;5047155;28;20672;-80
2022/06/12 08:30:13;;;;;;;8.40;3.15;;;23.20;99.90;;;;;;5045231;28;20187;-80
2022/06/12 08:33:13;;;;;;;16.67;3.70;;;23.20;99.90;;;;;;5030822;28;20192;-79
2022/06/12 08:35:40;;;;;;;12.52;3.40;;;23.30;99.90;;;;;;5032210;28;20183;-80
2022/06/12 08:38:07;;;;;;;13.65;3.63;;;23.40;99.90;;;;;;5027709;28;20209;-81
2022/06/12 08:41:15;;;;;;;13.18;3.45;;;23.40;99.90;;;;;;5035679;28;20187;-80
2022/06/12 08:44:11;;;;;;;12.63;3.10;;;23.50;99.90;;;;;;5026365;28;20241;-81
2022/06/12 08:46:49;;;;;;;16.42;3.60;;;23.60;99.90;;;;;;5016959;28;20580;-80
2022/06/12 08:49:41;;;;;;;9.43;3.30;;;23.60;99.90;;;;;;5034236;28;20245;-80
2022/06/12 08:52:30;;;;;;;9.30;3.10;;;23.50;99.90;;;;;;5033647;28;20192;-83
2022/06/12 08:55:26;;;;;;;8.77;3.13;;;23.50;99.90;;;;;;5037819;28;20184;-80
2022/06/12 08:58:19;;;;;;;7.60;2.85;;;24.00;99.90;;;;;;5020373;28;20184;-80
2022/06/12 09:00:46;;;;;;;13.52;3.47;;;24.10;99.90;;;;;;5030409;28;20194;-82
2022/06/12 09:03:20;;;;;;;13.93;2.80;;;24.00;99.90;;;;;;5029935;28;20246;-79
2022/06/12 09:06:25;;;;;;;7.88;2.67;;;24.10;99.90;;;;;;5036564;28;20187;-80
2022/06/12 09:09:09;;;;;;;9.32;2.83;;;24.20;99.90;;;;;;5042667;28;20199;-79
2022/06/12 09:12:14;;;;;;;10.45;2.90;;;24.10;99.90;;;;;;5020502;28;20241;-81
2022/06/12 09:15:14;;;;;;;11.73;3.40;;;23.90;99.90;;;;;;5034699;28;20202;-80
2022/06/12 09:18:15;;;;;;;10.63;3.13;;;23.80;99.90;;;;;;5036476;28;20180;-80
2022/06/12 09:21:22;;;;;;;7.70;2.83;;;23.90;99.90;;;;;;5033561;28;20186;-80
2022/06/12 09:24:13;;;;;;;9.40;2.55;;;23.90;99.90;;;;;;5029036;28;20183;-80
2022/06/12 09:27:16;;;;;;;12.88;3.33;;;24.00;99.90;;;;;;5053776;28;20175;-79
2022/06/12 09:30:01;;;;;;;9.57;3.13;;;24.00;99.90;;;;;;5037635;28;20274;-80
2022/06/12 09:32:54;;;;;;;14.20;2.90;;;24.10;99.90;;;;;;5050844;28;20191;-83
2022/06/12 09:35:58;;;;;;;11.32;2.92;;;24.10;99.90;;;;;;5048137;28;20168;-80
2022/06/12 09:38:30;;;;;;;10.10;2.70;;;24.40;99.90;;;;;;5061539;28;20586;-80
2022/06/12 09:41:38;;;;;;;16.35;3.15;;;24.80;99.90;;;;;;5029447;28;20183;-80
2022/06/12 09:44:46;;;;;;;9.82;3.00;;;25.10;99.90;;;;;;5045428;28;20242;-82
2022/06/12 09:47:30;;;;;;;12.13;3.08;;;24.90;99.90;;;;;;5050957;28;20183;-80
2022/06/12 09:50:22;;;;;;;8.27;2.67;;;24.50;99.90;;;;;;5024917;28;20183;-80
2022/06/12 09:53:02;;;;;;;10.98;3.00;;;24.50;99.90;;;;;;5034683;28;20224;-80
2022/06/12 09:55:38;;;;;;;9.05;2.35;;;24.60;99.90;;;;;;5032329;28;20180;-81
2022/06/12 09:58:38;;;;;;;11.75;2.78;;;24.90;99.90;;;;;;5020768;28;20266;-80
2022/06/12 10:01:22;;;;;;;10.70;2.50;;;24.80;99.90;;;;;;5022802;28;20188;-81
2022/06/12 10:04:01;;;;;;;8.10;2.53;;;25.00;99.90;;;;;;5030715;28;20195;-82
2022/06/12 10:07:02;;;;;;;11.27;2.88;;;25.10;99.90;;;;;;5063801;28;20191;-84
2022/06/12 10:09:54;;;;;;;10.25;2.85;;;24.70;99.90;;;;;;5031102;28;20186;-79
2022/06/12 10:12:39;;;;;;;8.35;2.33;;;24.30;99.90;;;;;;5049759;28;20184;-80
2022/06/12 10:15:35;;;;;;;9.57;2.42;;;24.50;99.90;;;;;;5061808;28;20549;-81
2022/06/12 10:18:37;;;;;;;10.05;2.25;;;24.40;99.90;;;;;;5060831;28;20680;-81
2022/06/12 10:21:17;;;;;;;10.10;2.35;;;24.30;99.90;;;;;;5031957;28;20286;-80
2022/06/12 10:23:44;;;;;;;14.27;3.15;;;24.30;99.90;;;;;;5033489;28;20708;-79
2022/06/12 10:26:29;;;;;;;8.90;2.50;;;24.30;99.90;;;;;;5052873;28;20180;-80
2022/06/12 10:29:13;;;;;;;4.90;1.88;;;24.50;99.90;;;;;;5028349;28;20595;-81
2022/06/12 10:32:01;;;;;;;8.75;2.35;;;24.50;99.90;;;;;;5027197;28;20198;-80
2022/06/12 10:34:32;;;;;;;8.35;1.98;;;24.50;99.90;;;;;;5033989;28;20264;-81
2022/06/12 10:37:27;;;;;;;11.38;2.95;;;24.30;99.90;;;;;;5034981;28;20180;-79
2022/06/12 10:40:23;;;;;;;5.28;1.90;;;24.20;99.90;;;;;;5033972;28;20183;-80
2022/06/12 10:43:02;;;;;;;9.48;2.53;;;24.10;99.90;;;;;;5043460;28;20288;-81
2022/06/12 10:45:40;;;;;;;7.20;1.85;;;24.10;99.90;;;;;;5022441;28;20195;-82
2022/06/12 10:48:30;;;;;;;7.10;2.10;;;24.20;99.90;;;;;;5038694;28;22373;-79
2022/06/12 10:51:02;;;;;;;6.50;1.83;;;24.50;99.90;;;;;;5043660;28;20217;-81
2022/06/12 10:53:33;;;;;;;13.98;2.40;;;24.70;99.90;;;;;;5026117;28;20279;-82
2022/06/12 10:56:17;;;;;;;8.82;2.10;;;25.00;99.90;;;;;;5047169;28;20183;-79
2022/06/12 10:59:19;;;;;;;9.25;2.38;;;25.20;99.90;;;;;;5039099;28;20196;-79
2022/06/12 11:02:07;;;;;;;5.82;2.13;;;25.00;99.90;;;;;;5032258;28;20205;-79
2022/06/12 11:04:58;;;;;;;12.07;2.47;;;24.80;99.90;;;;;;5033449;28;20198;-80
2022/06/12 11:07:53;;;;;;;6.93;2.55;;;24.90;99.90;;;;;;5044047;28;20671;-79
2022/06/12 11:10:44;;;;;;;10.27;4.20;;;24.90;99.90;;;;;;5016813;28;20212;-78
2022/06/12 11:13:36;;;;;;;5.72;2.30;;;25.10;99.90;;;;;;5037644;28;20191;-78
2022/06/12 11:16:22;;;;;;;8.75;2.90;;;25.30;99.90;;;;;;5025459;28;20193;-78
2022/06/12 11:19:19;;;;;;;8.90;3.15;;;25.40;99.90;;;;;;5058767;28;20188;-77
2022/06/12 11:22:45;;;;;;;10.63;2.85;;;25.00;99.90;;;;;;5034174;28;20203;-79
2022/06/12 11:26:02;;;;;;;9.85;2.45;;;24.80;99.90;;;;;;5042688;28;20234;-81
2022/06/12 11:28:50;;;;;;;6.85;2.30;;;24.70;99.90;;;;;;5046319;28;20718;-80
2022/06/12 11:31:31;;;;;;;5.50;2.15;;;24.90;99.90;;;;;;5033035;28;20183;-79
2022/06/12 11:34:34;;;;;;;6.43;2.03;;;24.90;99.90;;;;;;5028177;28;20919;-80
2022/06/12 11:37:50;;;;;;;11.43;2.55;;;24.70;99.90;;;;;;5023724;28;20187;-81
2022/06/12 11:40:42;;;;;;;10.27;2.60;;;24.60;99.90;;;;;;5066965;28;20179;-79
2022/06/12 11:43:55;;;;;;;6.07;2.67;;;24.50;99.90;;;;;;5016391;28;20231;-79
2022/06/12 11:46:49;;;;;;;8.90;2.33;;;24.60;99.90;;;;;;5037182;28;20223;-79
2022/06/12 11:49:39;;;;;;;12.65;2.67;;;24.90;99.90;;;;;;5046096;28;20186;-81
2022/06/12 11:52:47;;;;;;;11.73;2.78;;;25.20;99.90;;;;;;5046351;28;20228;-77
2022/06/12 11:55:38;;;;;;;12.48;2.60;;;25.30;99.90;;;;;;5027462;28;20282;-79
2022/06/12 11:58:46;;;;;;;11.27;2.90;;;25.10;99.90;;;;;;5041797;28;20282;-78
2022/06/12 12:01:48;;;;;;;10.13;2.90;;;25.00;99.90;;;;;;5034776;28;20192;-80
2022/06/12 12:05:22;;;;;;;10.38;2.53;;;25.10;99.90;;;;;;5015863;28;20190;-80
2022/06/12 12:08:16;;;;;;;8.57;2.47;;;24.90;99.90;;;;;;4995338;28;20232;-80
2022/06/12 12:10:54;;;;;;;9.27;2.38;;;24.80;99.90;;;;;;5034622;28;20212;-79
2022/06/12 12:13:42;;;;;;;9.75;2.55;;;24.90;99.90;;;;;;5032353;28;20190;-81
2022/06/12 12:16:41;;;;;;;10.10;2.40;;;25.10;99.90;;;;;;5046252;28;20688;-79
2022/06/12 12:19:25;;;;;;;21.42;2.90;;;25.00;99.90;;;;;;5039031;28;20271;-79
2022/06/12 12:22:27;;;;;;;8.38;2.55;;;24.90;99.90;;;;;;5027552;28;20199;-80
2022/06/12 12:25:22;;;;;;;9.57;2.40;;;25.00;99.90;;;;;;5018283;28;20245;-79
2022/06/12 12:27:57;;;;;;;14.52;3.13;;;25.00;99.90;;;;;;5046178;28;20905;-79
2022/06/12 12:30:30;;;;;;;11.18;2.92;;;24.80;99.90;;;;;;5027640;28;20188;-79
2022/06/12 12:33:03;;;;;;;11.40;2.78;;;24.90;99.90;;;;;;5030349;28;20212;-80
2022/06/12 12:41:24;;;;;;;9.80;3.10;;;24.80;99.90;;;;;;5044097;28;20191;-80
2022/06/12 12:44:00;;;;;;;11.90;3.72;;;24.70;99.90;;;;;;5037523;28;20203;-79
2022/06/12 12:46:51;;;;;;;9.50;3.33;;;24.60;99.90;;;;;;5040269;28;20200;-80
2022/06/12 12:49:39;;;;;;;13.90;3.22;;;24.60;99.90;;;;;;5030279;28;20184;-80
2022/06/12 12:52:11;;;;;;;10.73;3.65;;;24.50;99.90;;;;;;5027922;28;20183;-78
2022/06/12 12:54:55;;;;;;;10.60;3.15;;;24.40;99.90;;;;;;5043829;28;20183;-80
2022/06/12 12:57:44;;;;;;;11.18;3.00;;;24.30;99.90;;;;;;5022264;28;20195;-80
2022/06/12 13:00:16;;;;;;;18.98;3.67;;;24.50;99.90;;;;;;5037090;28;20192;-79
2022/06/12 13:03:30;;;;;;;14.63;3.88;;;24.60;99.90;;;;;;5017082;28;20513;-79
2022/06/12 13:06:03;;;;;;;13.38;3.92;;;24.80;99.90;;;;;;5033545;28;20183;-80
2022/06/12 13:08:48;;;;;;;12.35;3.55;;;25.10;99.90;;;;;;5028446;28;20671;-79
2022/06/12 13:11:26;;;;;;;11.20;3.10;;;25.00;99.90;;;;;;5014148;28;20192;-80
2022/06/12 13:14:28;;;;;;;13.40;3.13;;;24.90;99.90;;;;;;5052304;28;20191;-79
2022/06/12 13:17:29;;;;;;;12.90;3.22;;;24.70;99.90;;;;;;5050743;28;20206;-79
2022/06/12 13:20:14;;;;;;;8.98;3.10;;;24.60;99.90;;;;;;5034947;28;20194;-79
2022/06/12 13:23:05;;;;;;;15.02;3.47;;;24.50;99.90;;;;;;5020495;28;20257;-79
2022/06/12 13:25:44;;;;;;;12.30;3.72;;;24.50;99.90;;;;;;5029728;28;20214;-79
2022/06/12 13:28:25;;;;;;;13.43;3.35;;;24.60;99.90;;;;;;5024390;28;20180;-79
2022/06/12 13:30:55;;;;;;;11.40;3.00;;;24.60;99.90;;;;;;5029640;28;20201;-81
2022/06/12 13:33:29;;;;;;;12.77;3.47;;;24.70;99.90;;;;;;5037657;28;20243;-79
2022/06/12 13:36:01;;;;;;;14.48;3.60;;;24.70;99.90;;;;;;5019316;28;20191;-81
2022/06/12 13:38:34;;;;;;;14.77;3.20;;;24.80;99.90;;;;;;5040273;28;20187;-79
2022/06/12 13:41:38;;;;;;;12.27;3.33;;;24.90;99.90;;;;;;5034728;28;20190;-79
2022/06/12 13:44:21;;;;;;;19.42;3.47;;;24.80;99.90;;;;;;5038519;28;20269;-79
2022/06/12 13:46:51;;;;;;;11.15;3.30;;;24.80;99.90;;;;;;5026876;28;20337;-78
2022/06/12 13:50:35;;;;;;;9.52;3.20;;;24.70;99.90;;;;;;5054789;28;20195;-79
2022/06/12 13:53:18;;;;;;;11.80;3.13;;;24.50;99.90;;;;;;5011563;28;20227;-81
2022/06/12 13:55:58;;;;;;;21.40;3.30;;;24.50;99.90;;;;;;5018655;28;20812;-79
2022/06/12 13:58:42;;;;;;;13.15;3.42;;;24.50;99.90;;;;;;5030107;28;20227;-81
2022/06/12 14:01:26;;;;;;;13.20;3.70;;;24.50;99.90;;;;;;5035349;28;20190;-80
2022/06/12 14:04:04;;;;;;;16.30;3.65;;;24.40;99.90;;;;;;5044500;28;20207;-78
2022/06/12 14:06:40;;;;;;;15.63;3.35;;;24.40;99.90;;;;;;5042754;28;20633;-79
2022/06/12 14:09:16;;;;;;;10.68;2.90;;;24.50;99.90;;;;;;5038111;28;20188;-78